createdAt,value
2022-10-20T00:01:27.230Z,94.90
2022-10-20T00:03:55.280Z,95.00
2022-10-20T00:06:25.914Z,95.30
2022-10-20T00:08:53.675Z,95.00
2022-10-20T00:11:21.748Z,95.00
2022-10-20T00:13:50.617Z,95.00
2022-10-20T00:16:18.226Z,95.10
2022-10-20T00:18:45.035Z,95.10
2022-10-20T00:21:17.929Z,95.00
2022-10-20T00:23:44.985Z,95.10
2022-10-20T00:26:18.668Z,95.00
2022-10-20T00:28:46.102Z,95.20
2022-10-20T00:31:13.234Z,95.10
2022-10-20T00:33:40.279Z,95.10
2022-10-20T00:36:09.010Z,95.10
2022-10-20T00:38:36.133Z,95.30
2022-10-20T00:41:03.524Z,95.20
2022-10-20T00:43:44.860Z,95.30
2022-10-20T00:46:13.743Z,95.50
2022-10-20T00:48:42.730Z,95.40
2022-10-20T00:51:11.531Z,95.50
2022-10-20T00:53:38.202Z,95.40
2022-10-20T00:56:05.047Z,95.50
2022-10-20T00:58:31.709Z,95.40
2022-10-20T01:00:59.439Z,95.50
2022-10-20T01:03:34.633Z,95.50
2022-10-20T01:06:01.281Z,95.60
2022-10-20T01:08:27.960Z,95.50
2022-10-20T01:11:36.505Z,95.60
2022-10-20T01:14:31.133Z,95.80
2022-10-20T01:17:28.450Z,95.70
2022-10-20T01:20:01.006Z,95.70
2022-10-20T01:22:42.557Z,95.70
2022-10-20T01:25:45.098Z,95.70
2022-10-20T01:28:40.719Z,95.90
2022-10-20T01:31:26.940Z,95.90
2022-10-20T01:34:02.328Z,95.80
2022-10-20T01:36:56.702Z,96.00
2022-10-20T01:39:36.114Z,96.00
2022-10-20T01:42:11.305Z,95.90
2022-10-20T01:44:40.595Z,95.90
2022-10-20T01:47:10.008Z,95.80
2022-10-20T01:49:37.057Z,95.80
2022-10-20T01:52:03.845Z,95.70
2022-10-20T01:54:30.761Z,95.80
2022-10-20T01:57:17.710Z,95.80
2022-10-20T02:00:00.955Z,96.10
2022-10-20T02:02:46.422Z,96.20
2022-10-20T02:05:26.528Z,96.20
2022-10-20T02:08:00.126Z,95.90
2022-10-20T02:10:36.805Z,95.90
2022-10-20T02:13:07.064Z,96.00
2022-10-20T02:15:38.985Z,96.00
2022-10-20T02:18:08.478Z,96.00
2022-10-20T02:20:35.480Z,96.00
2022-10-20T02:23:04.772Z,95.90
2022-10-20T02:25:32.982Z,96.00
2022-10-20T02:30:32.767Z,96.00
2022-10-20T02:32:59.362Z,95.90
2022-10-20T02:35:33.399Z,96.00
2022-10-20T02:38:00.526Z,96.10
2022-10-20T02:40:27.445Z,96.00
2022-10-20T02:42:54.192Z,95.90
2022-10-20T02:45:20.871Z,96.00
2022-10-20T02:47:47.543Z,96.00
2022-10-20T02:50:14.206Z,96.00
2022-10-20T02:52:41.227Z,96.00
2022-10-20T02:55:08.238Z,96.00
2022-10-20T02:57:35.381Z,96.00
2022-10-20T03:00:02.259Z,96.00
2022-10-20T03:02:28.917Z,96.00
2022-10-20T03:04:55.575Z,96.00
2022-10-20T03:07:22.186Z,96.00
2022-10-20T03:09:48.989Z,96.00
2022-10-20T03:12:15.775Z,96.00
2022-10-20T03:14:42.702Z,96.00
2022-10-20T03:17:09.971Z,96.10
2022-10-20T03:19:36.663Z,96.10
2022-10-20T03:22:03.407Z,96.00
2022-10-20T03:24:29.992Z,96.00
2022-10-20T03:26:56.627Z,96.00
2022-10-20T03:29:23.227Z,96.10
2022-10-20T03:34:21.790Z,96.10
2022-10-20T03:36:48.389Z,96.10
2022-10-20T03:39:15.065Z,96.00
2022-10-20T03:41:41.755Z,96.10
2022-10-20T03:44:10.194Z,96.10
2022-10-20T03:46:36.880Z,96.20
2022-10-20T03:49:03.828Z,96.20
2022-10-20T03:51:30.483Z,96.20
2022-10-20T03:53:57.042Z,96.20
2022-10-20T03:56:23.641Z,96.20
2022-10-20T03:58:50.377Z,96.30
2022-10-20T04:01:19.992Z,96.30
2022-10-20T04:03:46.950Z,96.30
2022-10-20T04:06:14.927Z,96.30
2022-10-20T04:08:41.808Z,96.30
2022-10-20T04:11:08.695Z,96.30
2022-10-20T04:13:35.383Z,96.40
2022-10-20T04:16:02.030Z,96.30
2022-10-20T04:18:28.687Z,96.40
2022-10-20T04:20:55.572Z,96.40
2022-10-20T04:23:22.334Z,96.40
2022-10-20T04:25:49.074Z,96.40
2022-10-20T04:28:18.517Z,96.30
2022-10-20T04:30:46.384Z,96.40
2022-10-20T04:33:13.557Z,96.30
2022-10-20T04:35:40.698Z,96.30
2022-10-20T04:38:07.887Z,96.30
2022-10-20T04:40:34.536Z,96.40
2022-10-20T04:43:01.355Z,96.40
2022-10-20T04:45:28.336Z,96.30
2022-10-20T04:47:54.971Z,96.40
2022-10-20T04:50:21.735Z,96.40
2022-10-20T04:52:59.390Z,96.30
2022-10-20T04:55:26.033Z,96.30
2022-10-20T04:57:52.721Z,96.30
2022-10-20T05:00:19.361Z,96.30
2022-10-20T05:02:45.970Z,96.30
2022-10-20T05:05:12.775Z,96.30
2022-10-20T05:07:39.705Z,96.30
2022-10-20T05:10:07.008Z,96.70
2022-10-20T05:12:33.973Z,96.40
2022-10-20T05:15:00.815Z,96.70
2022-10-20T05:17:30.005Z,96.40
2022-10-20T05:19:56.912Z,96.40
2022-10-20T05:22:23.528Z,96.30
2022-10-20T05:24:50.127Z,96.30
2022-10-20T05:27:16.802Z,96.20
2022-10-20T05:29:43.418Z,96.20
2022-10-20T05:32:11.218Z,96.20
2022-10-20T05:34:38.922Z,96.30
2022-10-20T05:37:05.542Z,96.20
2022-10-20T05:39:32.200Z,96.20
2022-10-20T05:41:58.834Z,96.20
2022-10-20T05:44:25.423Z,96.20
2022-10-20T05:46:52.078Z,96.20
2022-10-20T05:49:18.808Z,96.50
2022-10-20T05:51:46.707Z,96.20
2022-10-20T05:54:14.027Z,96.20
2022-10-20T05:56:41.378Z,96.20
2022-10-20T05:59:08.781Z,96.20
2022-10-20T06:01:48.077Z,96.20
2022-10-20T06:04:17.532Z,96.20
2022-10-20T06:06:44.356Z,96.20
2022-10-20T06:09:11.744Z,96.20
2022-10-20T06:11:39.680Z,96.20
2022-10-20T06:14:07.598Z,96.20
2022-10-20T06:16:34.450Z,96.30
2022-10-20T06:19:01.427Z,96.30
2022-10-20T06:21:30.480Z,96.40
2022-10-20T06:24:01.650Z,96.40
2022-10-20T06:26:29.864Z,96.40
2022-10-20T06:29:03.545Z,96.40
2022-10-20T06:31:43.365Z,96.40
2022-10-20T06:34:24.328Z,96.50
2022-10-20T06:36:51.530Z,96.50
2022-10-20T06:39:21.663Z,96.40
2022-10-20T06:41:53.721Z,96.40
2022-10-20T06:44:22.565Z,96.40
2022-10-20T06:46:52.202Z,96.40
2022-10-20T06:49:19.386Z,96.30
2022-10-20T06:51:46.107Z,96.40
2022-10-20T06:54:12.992Z,96.40
2022-10-20T06:56:40.202Z,96.30
2022-10-20T06:59:07.280Z,96.30
2022-10-20T07:01:36.324Z,96.30
2022-10-20T07:04:10.226Z,96.30
2022-10-20T07:06:39.834Z,96.30
2022-10-20T07:09:11.350Z,96.30
2022-10-20T07:11:38.409Z,96.20
2022-10-20T07:14:05.242Z,96.20
2022-10-20T07:16:34.458Z,96.20
2022-10-20T07:19:02.452Z,96.20
2022-10-20T07:21:34.442Z,96.20
2022-10-20T07:24:04.955Z,96.20
2022-10-20T07:26:34.503Z,96.20
2022-10-20T07:29:02.789Z,96.20
2022-10-20T07:31:38.413Z,96.10
2022-10-20T07:34:23.385Z,96.10
2022-10-20T07:36:52.119Z,96.10
2022-10-20T07:39:18.722Z,96.00
2022-10-20T07:41:47.570Z,96.00
2022-10-20T07:44:14.358Z,95.90
2022-10-20T07:46:41.037Z,95.90
2022-10-20T07:51:54.481Z,95.90
2022-10-20T07:54:21.094Z,95.80
2022-10-20T07:56:47.759Z,95.80
2022-10-20T07:59:14.718Z,95.70
2022-10-20T08:01:41.997Z,95.70
2022-10-20T08:04:08.754Z,95.70
2022-10-20T08:06:35.433Z,95.70
2022-10-20T08:09:02.331Z,95.60
2022-10-20T08:11:29.182Z,95.60
2022-10-20T08:13:55.864Z,95.60
2022-10-20T08:21:49.140Z,95.80
2022-10-20T08:24:15.769Z,95.40
2022-10-20T08:26:42.405Z,95.40
2022-10-20T08:29:09.639Z,95.40
2022-10-20T08:31:36.316Z,95.40
2022-10-20T08:34:03.013Z,95.40
2022-10-20T08:36:29.926Z,95.30
2022-10-20T08:39:03.387Z,95.40
2022-10-20T08:41:55.408Z,95.30
2022-10-20T08:44:30.553Z,95.30
2022-10-20T08:46:59.535Z,94.90
2022-10-20T08:49:30.451Z,95.00
2022-10-20T08:51:58.676Z,94.90
2022-10-20T08:54:25.522Z,94.90
2022-10-20T08:56:52.701Z,94.80
2022-10-20T08:59:29.663Z,94.80
2022-10-20T09:01:57.765Z,94.80
2022-10-20T09:04:37.630Z,94.90
2022-10-20T09:07:10.755Z,94.90
2022-10-20T09:09:37.581Z,95.10
2022-10-20T09:12:06.983Z,95.10
2022-10-20T09:14:36.937Z,94.70
2022-10-20T09:17:06.929Z,94.60
2022-10-20T09:19:36.165Z,94.70
2022-10-20T09:22:07.203Z,94.40
2022-10-20T09:24:35.793Z,94.00
2022-10-20T09:27:21.712Z,93.80
2022-10-20T09:29:48.445Z,93.10
2022-10-20T09:32:46.516Z,93.20
2022-10-20T09:35:29.806Z,92.90
2022-10-20T09:38:16.423Z,93.00
2022-10-20T09:40:46.403Z,93.20
2022-10-20T09:43:18.193Z,93.40
2022-10-20T09:45:53.541Z,93.30
2022-10-20T09:48:31.447Z,93.10
2022-10-20T09:50:59.144Z,92.80
2022-10-20T09:53:34.815Z,92.90
2022-10-20T09:56:01.909Z,92.80
2022-10-20T09:58:33.867Z,92.70
2022-10-20T10:01:11.678Z,92.70
2022-10-20T10:03:45.452Z,92.50
2022-10-20T10:06:39.084Z,92.60
2022-10-20T10:09:36.393Z,92.70
2022-10-20T10:12:23.914Z,92.30
2022-10-20T10:14:56.705Z,92.30
2022-10-20T10:17:34.109Z,92.50
2022-10-20T10:20:25.645Z,92.20
2022-10-20T10:22:52.825Z,92.00
2022-10-20T10:25:25.917Z,92.10
2022-10-20T10:28:06.888Z,91.30
2022-10-20T10:30:36.188Z,91.00
2022-10-20T10:33:28.086Z,91.20
2022-10-20T10:35:55.179Z,90.50
2022-10-20T10:38:22.052Z,90.90
2022-10-20T10:40:54.382Z,90.80
2022-10-20T10:43:48.594Z,90.90
2022-10-20T10:46:24.146Z,90.40
2022-10-20T10:49:09.503Z,90.90
2022-10-20T10:51:53.665Z,90.90
2022-10-20T10:54:45.109Z,90.80
2022-10-20T10:57:30.082Z,90.60
2022-10-20T11:00:00.350Z,91.00
2022-10-20T11:03:12.231Z,90.80
2022-10-20T11:05:58.044Z,90.80
2022-10-20T11:08:33.441Z,91.00
2022-10-20T11:11:10.366Z,91.10
2022-10-20T11:13:51.080Z,91.00
2022-10-20T11:16:44.026Z,91.10
2022-10-20T11:19:20.707Z,91.00
2022-10-20T11:22:05.003Z,91.00
2022-10-20T11:25:12.973Z,91.10
2022-10-20T11:27:40.023Z,91.10
2022-10-20T11:30:20.810Z,91.30
2022-10-20T11:33:05.677Z,91.10
2022-10-20T11:35:40.012Z,91.10
2022-10-20T11:38:37.554Z,91.10
2022-10-20T11:41:16.348Z,91.10
2022-10-20T11:44:01.229Z,91.20
2022-10-20T11:46:45.482Z,91.20
2022-10-20T11:49:12.419Z,91.20
2022-10-20T11:52:04.290Z,91.50
2022-10-20T11:54:58.968Z,91.20
2022-10-20T11:58:01.133Z,91.10
2022-10-20T12:00:44.734Z,91.30
2022-10-20T12:03:30.033Z,91.40
2022-10-20T12:06:11.856Z,91.50
2022-10-20T12:09:07.276Z,91.50
2022-10-20T12:11:56.505Z,91.50
2022-10-20T12:14:37.448Z,91.50
2022-10-20T12:17:27.539Z,91.60
2022-10-20T12:20:20.015Z,91.70
2022-10-20T12:22:52.913Z,91.80
2022-10-20T12:25:25.078Z,91.90
2022-10-20T12:28:19.507Z,92.40
2022-10-20T12:31:04.896Z,92.60
2022-10-20T12:33:49.853Z,93.00
2022-10-20T12:36:19.253Z,93.20
2022-10-20T12:38:52.294Z,92.90
2022-10-20T12:41:26.715Z,93.10
2022-10-20T12:43:58.332Z,93.40
2022-10-20T12:46:31.386Z,93.30
2022-10-20T12:49:07.991Z,93.70
2022-10-20T12:51:53.447Z,93.70
2022-10-20T12:54:26.409Z,94.20
2022-10-20T12:56:58.337Z,94.10
2022-10-20T12:59:30.530Z,94.30
2022-10-20T13:02:09.278Z,94.40
2022-10-20T13:04:57.836Z,94.70
2022-10-20T13:07:46.276Z,94.90
2022-10-20T13:10:29.005Z,95.00
2022-10-20T13:13:01.657Z,95.10
2022-10-20T13:15:43.255Z,95.10
2022-10-20T13:18:12.967Z,95.40
2022-10-20T13:20:49.408Z,95.30
2022-10-20T13:23:19.145Z,95.50
2022-10-20T13:25:53.068Z,95.40
2022-10-20T13:28:26.799Z,95.60
2022-10-20T13:30:56.116Z,95.80
2022-10-20T13:33:38.816Z,95.90
2022-10-20T13:36:40.848Z,96.10
2022-10-20T13:39:22.627Z,96.40
2022-10-20T13:41:57.775Z,96.60
2022-10-20T13:44:32.739Z,96.70
2022-10-20T13:47:39.261Z,96.70
2022-10-20T13:50:14.719Z,97.10
2022-10-20T13:52:44.775Z,97.10
2022-10-20T13:55:24.561Z,97.20
2022-10-20T13:57:57.317Z,97.50
2022-10-20T14:00:27.991Z,97.60
2022-10-20T14:03:03.689Z,97.70
2022-10-20T14:05:37.152Z,97.90
2022-10-20T14:08:09.343Z,98.00
2022-10-20T14:10:57.827Z,98.20
2022-10-20T14:13:31.983Z,98.40
2022-10-20T14:16:00.069Z,98.50
2022-10-20T14:18:39.468Z,98.50
2022-10-20T14:24:01.164Z,98.80
2022-10-20T14:26:29.196Z,98.90
2022-10-20T14:28:56.107Z,98.90
2022-10-20T14:31:24.273Z,99.00
2022-10-20T14:33:52.264Z,99.00
2022-10-20T14:39:00.869Z,99.20
2022-10-20T14:41:29.203Z,99.10
2022-10-20T14:44:05.130Z,99.20
2022-10-20T14:46:41.181Z,99.30
2022-10-20T14:49:16.007Z,99.30
2022-10-20T14:51:54.939Z,99.40
2022-10-20T14:54:22.513Z,99.50
2022-10-20T14:56:55.189Z,99.50
2022-10-20T14:59:28.184Z,99.60
2022-10-20T15:02:16.895Z,99.60
2022-10-20T15:04:45.030Z,99.80
2022-10-20T15:07:17.600Z,99.80
2022-10-20T15:09:50.309Z,99.90
2022-10-20T15:12:33.011Z,99.90
2022-10-20T15:15:11.135Z,99.90
2022-10-20T15:17:39.491Z,99.90
2022-10-20T15:20:32.319Z,99.90
2022-10-20T15:23:00.436Z,99.90
2022-10-20T15:25:29.511Z,99.90
2022-10-20T15:27:57.211Z,99.90
2022-10-20T15:30:25.611Z,99.90
2022-10-20T15:32:53.805Z,99.90
2022-10-20T15:35:23.647Z,99.90
2022-10-20T15:37:52.472Z,99.90
2022-10-20T15:40:21.107Z,99.90
2022-10-20T15:42:48.722Z,99.90
2022-10-20T15:45:22.156Z,99.90
2022-10-20T15:47:49.139Z,99.90
2022-10-20T15:50:20.586Z,99.90
2022-10-20T15:52:49.585Z,99.90
2022-10-20T15:55:22.327Z,99.90
2022-10-20T15:57:50.806Z,99.90
2022-10-20T16:00:18.547Z,99.90
2022-10-20T16:02:45.450Z,99.90
2022-10-20T16:05:12.165Z,99.90
2022-10-20T16:07:39.115Z,99.90
2022-10-20T16:10:07.256Z,99.90
2022-10-20T16:12:34.327Z,99.90
2022-10-20T16:15:01.774Z,99.90
2022-10-20T16:17:28.436Z,99.90
2022-10-20T16:19:55.156Z,99.90
2022-10-20T16:22:22.052Z,99.90
2022-10-20T16:24:48.705Z,99.90
2022-10-20T16:27:15.829Z,99.90
2022-10-20T16:29:45.096Z,99.90
2022-10-20T16:32:14.228Z,99.90
2022-10-20T16:34:40.843Z,99.90
2022-10-20T16:37:07.544Z,99.90
2022-10-20T16:39:34.125Z,99.90
2022-10-20T16:42:00.817Z,99.90
2022-10-20T16:44:27.497Z,99.90
2022-10-20T16:46:54.154Z,99.90
2022-10-20T16:49:20.733Z,99.90
2022-10-20T16:51:47.322Z,99.90
2022-10-20T16:54:14.049Z,99.90
2022-10-20T16:56:40.653Z,99.90
2022-10-20T16:59:07.503Z,99.90
2022-10-20T17:01:34.222Z,99.90
2022-10-20T17:04:00.872Z,99.90
2022-10-20T17:06:27.543Z,99.90
2022-10-20T17:08:54.706Z,99.90
2022-10-20T17:11:23.869Z,99.90
2022-10-20T17:13:51.193Z,99.90
2022-10-20T17:16:24.831Z,99.90
2022-10-20T17:18:55.111Z,99.90
2022-10-20T17:21:21.906Z,99.90
2022-10-20T17:23:48.777Z,99.90
2022-10-20T17:26:18.891Z,99.90
2022-10-20T17:28:46.669Z,99.90
2022-10-20T17:33:43.328Z,99.90
2022-10-20T17:36:11.639Z,99.90
2022-10-20T17:38:38.898Z,99.90
2022-10-20T17:41:10.641Z,99.90
2022-10-20T17:43:37.342Z,99.90
2022-10-20T17:46:06.774Z,99.90
2022-10-20T17:48:34.909Z,99.90
2022-10-20T17:51:05.833Z,99.90
2022-10-20T17:53:34.086Z,99.90
2022-10-20T17:56:06.029Z,99.90
2022-10-20T17:58:36.103Z,99.90
2022-10-20T18:01:13.959Z,99.90
2022-10-20T18:03:41.606Z,99.90
2022-10-20T18:06:10.735Z,99.90
2022-10-20T18:08:37.562Z,99.90
2022-10-20T18:11:09.134Z,99.90
2022-10-20T18:13:36.191Z,99.90
2022-10-20T18:16:11.879Z,99.90
2022-10-20T18:18:39.176Z,99.90
2022-10-20T18:21:11.343Z,99.90
2022-10-20T18:23:38.310Z,99.90
2022-10-20T18:26:11.416Z,99.90
2022-10-20T18:28:44.422Z,99.90
2022-10-20T18:31:19.603Z,99.90
2022-10-20T18:33:46.959Z,99.90
2022-10-20T18:36:15.156Z,99.90
2022-10-20T18:38:43.758Z,99.90
2022-10-20T18:41:25.558Z,99.90
2022-10-20T18:43:57.762Z,99.90
2022-10-20T18:46:26.215Z,99.90
2022-10-20T18:48:53.113Z,99.90
2022-10-20T18:51:19.759Z,99.90
2022-10-20T18:53:47.011Z,99.90
2022-10-20T18:56:16.188Z,99.90
2022-10-20T18:58:47.655Z,99.90
2022-10-20T19:01:16.579Z,99.90
2022-10-20T19:03:48.545Z,99.90
2022-10-20T19:06:22.002Z,99.90
2022-10-20T19:08:53.996Z,99.90
2022-10-20T19:11:22.967Z,99.90
2022-10-20T19:13:49.748Z,99.90
2022-10-20T19:16:19.140Z,99.90
2022-10-20T19:18:48.336Z,99.90
2022-10-20T19:21:15.556Z,99.90
2022-10-20T19:23:45.072Z,99.90
2022-10-20T19:26:18.878Z,99.90
2022-10-20T19:28:58.768Z,99.90
2022-10-20T19:31:35.294Z,99.90
2022-10-20T19:34:07.336Z,99.90
2022-10-20T19:36:34.177Z,99.90
2022-10-20T19:39:01.565Z,99.90
2022-10-20T19:41:28.319Z,99.90
2022-10-20T19:43:54.926Z,99.90
2022-10-20T19:46:22.216Z,99.90
2022-10-20T19:48:49.760Z,99.90
2022-10-20T19:51:18.567Z,99.90
2022-10-20T19:53:45.831Z,99.90
2022-10-20T19:56:12.606Z,99.90
2022-10-20T19:58:42.716Z,99.90
2022-10-20T20:01:12.534Z,99.90
2022-10-20T20:03:39.230Z,99.90
2022-10-20T20:06:08.752Z,99.90
2022-10-20T20:08:36.532Z,99.90
2022-10-20T20:11:04.549Z,99.90
2022-10-20T20:13:32.541Z,99.90
2022-10-20T20:16:08.124Z,99.90
2022-10-20T20:18:35.592Z,99.90
2022-10-20T20:21:04.400Z,99.90
2022-10-20T20:23:41.333Z,99.90
2022-10-20T20:26:18.214Z,99.90
2022-10-20T20:28:44.853Z,99.90
2022-10-20T20:31:12.096Z,99.90
2022-10-20T20:33:38.945Z,99.90
2022-10-20T20:36:08.184Z,99.90
2022-10-20T20:38:37.073Z,99.90
2022-10-20T20:41:06.838Z,99.90
2022-10-20T20:43:35.108Z,99.90
2022-10-20T20:46:12.190Z,99.90
2022-10-20T20:48:38.865Z,99.90
2022-10-20T20:51:05.733Z,99.90
2022-10-20T20:56:08.210Z,99.90
2022-10-20T20:58:35.165Z,99.90
2022-10-20T21:01:02.713Z,99.90
2022-10-20T21:03:29.700Z,99.90
2022-10-20T21:05:56.360Z,99.90
2022-10-20T21:08:23.069Z,99.90
2022-10-20T21:10:49.682Z,99.90
2022-10-20T21:13:16.286Z,99.90
2022-10-20T21:15:42.902Z,99.90
2022-10-20T21:18:09.499Z,99.90
2022-10-20T21:20:36.179Z,99.90
2022-10-20T21:23:02.787Z,99.90
2022-10-20T21:25:29.381Z,99.90
2022-10-20T21:27:56.239Z,99.90
2022-10-20T21:30:24.195Z,99.90
2022-10-20T21:32:50.900Z,99.90
2022-10-20T21:35:17.462Z,99.90
2022-10-20T21:37:44.074Z,99.90
2022-10-20T21:40:11.086Z,99.90
2022-10-20T21:42:38.040Z,99.90
2022-10-20T21:45:05.208Z,99.90
2022-10-20T21:47:31.915Z,99.90
2022-10-20T21:49:58.496Z,99.90
2022-10-20T21:52:25.153Z,99.90
2022-10-20T21:54:51.757Z,99.90
2022-10-20T21:57:18.427Z,99.90
2022-10-20T21:59:50.289Z,99.90
2022-10-20T22:02:16.918Z,99.90
2022-10-20T22:04:43.506Z,99.90
2022-10-20T22:07:10.093Z,99.90
2022-10-20T22:09:36.696Z,99.90
2022-10-20T22:12:03.738Z,99.90
2022-10-20T22:14:30.576Z,99.90
2022-10-20T22:16:57.614Z,99.90
2022-10-20T22:19:24.997Z,99.90
2022-10-20T22:21:52.424Z,99.90
2022-10-20T22:24:20.028Z,99.90
2022-10-20T22:26:47.903Z,99.90
2022-10-20T22:29:14.715Z,99.90
2022-10-20T22:31:41.759Z,99.90
2022-10-20T22:34:08.980Z,99.90
2022-10-20T22:36:35.690Z,99.90
2022-10-20T22:39:02.899Z,99.90
2022-10-20T22:41:29.597Z,99.90
2022-10-20T22:43:57.491Z,99.90
2022-10-20T22:46:24.175Z,99.90
2022-10-20T22:48:50.866Z,99.90
2022-10-20T22:51:17.583Z,99.90
2022-10-20T22:53:44.219Z,99.90
2022-10-20T22:56:18.647Z,99.90
2022-10-20T22:58:45.514Z,99.90
2022-10-20T23:01:15.158Z,99.90
2022-10-20T23:03:42.275Z,99.90
2022-10-20T23:06:13.274Z,99.90
2022-10-20T23:08:45.828Z,99.90
2022-10-20T23:11:13.857Z,99.90
2022-10-20T23:13:40.758Z,99.90
2022-10-20T23:16:07.748Z,99.90
2022-10-20T23:18:34.480Z,99.90
2022-10-20T23:21:01.416Z,99.90
2022-10-20T23:23:28.253Z,99.90
2022-10-20T23:25:54.988Z,99.90
2022-10-20T23:28:21.677Z,99.90
2022-10-20T23:30:48.373Z,99.90
2022-10-20T23:33:15.297Z,99.90
2022-10-20T23:35:42.130Z,99.90
2022-10-20T23:38:09.727Z,99.90
2022-10-20T23:40:36.979Z,99.90
2022-10-20T23:43:03.895Z,99.90
2022-10-20T23:45:32.917Z,99.90
2022-10-20T23:48:02.164Z,99.90
2022-10-20T23:50:28.786Z,99.90
2022-10-20T23:52:55.449Z,99.90
2022-10-20T23:55:22.058Z,99.90
2022-10-20T23:57:50.547Z,99.90
